sensor_id;sensor_type;location;lat;lon;timestamp;P1;durP1;ratioP1;P2;durP2;ratioP2
71080;SDS011;58740;50.672;18.690;2023-05-10T00:01:34;13.80;;;5.20;;
71080;SDS011;58740;50.672;18.690;2023-05-10T00:04:03;10.60;;;4.70;;
71080;SDS011;58740;50.672;18.690;2023-05-10T00:06:31;9.30;;;3.90;;
71080;SDS011;58740;50.672;18.690;2023-05-10T00:08:59;9.70;;;4.10;;
71080;SDS011;58740;50.672;18.690;2023-05-10T00:11:26;8.40;;;3.50;;
71080;SDS011;58740;50.672;18.690;2023-05-10T00:13:54;9.10;;;3.60;;
71080;SDS011;58740;50.672;18.690;2023-05-10T00:16:22;10.80;;;3.80;;
71080;SDS011;58740;50.672;18.690;2023-05-10T00:18:50;7.30;;;2.90;;
71080;SDS011;58740;50.672;18.690;2023-05-10T00:21:18;8.10;;;3.80;;
71080;SDS011;58740;50.672;18.690;2023-05-10T00:23:45;9.40;;;3.50;;
71080;SDS011;58740;50.672;18.690;2023-05-10T00:26:13;8.80;;;3.50;;
71080;SDS011;58740;50.672;18.690;2023-05-10T00:28:41;8.20;;;3.60;;
71080;SDS011;58740;50.672;18.690;2023-05-10T00:31:09;7.80;;;3.80;;
71080;SDS011;58740;50.672;18.690;2023-05-10T00:33:37;8.10;;;3.30;;
71080;SDS011;58740;50.672;18.690;2023-05-10T00:36:05;8.00;;;3.40;;
71080;SDS011;58740;50.672;18.690;2023-05-10T00:38:34;6.00;;;3.10;;
71080;SDS011;58740;50.672;18.690;2023-05-10T00:41:02;9.00;;;3.50;;
71080;SDS011;58740;50.672;18.690;2023-05-10T00:43:30;9.40;;;3.70;;
71080;SDS011;58740;50.672;18.690;2023-05-10T00:45:58;9.60;;;3.50;;
71080;SDS011;58740;50.672;18.690;2023-05-10T00:48:28;8.70;;;3.40;;
71080;SDS011;58740;50.672;18.690;2023-05-10T00:50:56;10.10;;;4.10;;
71080;SDS011;58740;50.672;18.690;2023-05-10T00:53:24;10.40;;;4.80;;
71080;SDS011;58740;50.672;18.690;2023-05-10T00:55:52;8.20;;;2.70;;
71080;SDS011;58740;50.672;18.690;2023-05-10T00:58:20;7.30;;;3.10;;
71080;SDS011;58740;50.672;18.690;2023-05-10T01:00:49;8.50;;;3.40;;
71080;SDS011;58740;50.672;18.690;2023-05-10T01:03:18;8.10;;;3.40;;
71080;SDS011;58740;50.672;18.690;2023-05-10T01:05:46;8.10;;;3.40;;
71080;SDS011;58740;50.672;18.690;2023-05-10T01:08:14;8.00;;;2.90;;
71080;SDS011;58740;50.672;18.690;2023-05-10T01:10:42;7.80;;;3.10;;
71080;SDS011;58740;50.672;18.690;2023-05-10T01:13:12;8.70;;;3.20;;
71080;SDS011;58740;50.672;18.690;2023-05-10T01:15:41;9.30;;;3.20;;
71080;SDS011;58740;50.672;18.690;2023-05-10T01:18:09;8.70;;;3.70;;
71080;SDS011;58740;50.672;18.690;2023-05-10T01:20:43;7.70;;;3.70;;
71080;SDS011;58740;50.672;18.690;2023-05-10T01:30:04;6.60;;;3.00;;
71080;SDS011;58740;50.672;18.690;2023-05-10T01:38:42;7.40;;;2.50;;
71080;SDS011;58740;50.672;18.690;2023-05-10T01:41:18;7.30;;;2.70;;
71080;SDS011;58740;50.672;18.690;2023-05-10T01:44:46;7.30;;;3.10;;
71080;SDS011;58740;50.672;18.690;2023-05-10T01:47:17;11.20;;;3.20;;
71080;SDS011;58740;50.672;18.690;2023-05-10T01:49:53;9.30;;;3.80;;
71080;SDS011;58740;50.672;18.690;2023-05-10T01:52:26;8.30;;;3.20;;
71080;SDS011;58740;50.672;18.690;2023-05-10T01:55:04;11.30;;;3.70;;
71080;SDS011;58740;50.672;18.690;2023-05-10T01:57:35;9.00;;;3.30;;
71080;SDS011;58740;50.672;18.690;2023-05-10T02:00:07;7.70;;;3.20;;
71080;SDS011;58740;50.672;18.690;2023-05-10T02:02:39;10.70;;;3.70;;
71080;SDS011;58740;50.672;18.690;2023-05-10T02:05:12;9.40;;;3.20;;
71080;SDS011;58740;50.672;18.690;2023-05-10T02:07:42;7.80;;;3.20;;
71080;SDS011;58740;50.672;18.690;2023-05-10T02:10:12;8.30;;;3.50;;
71080;SDS011;58740;50.672;18.690;2023-05-10T02:12:44;8.80;;;3.30;;
71080;SDS011;58740;50.672;18.690;2023-05-10T02:15:19;9.90;;;3.60;;
71080;SDS011;58740;50.672;18.690;2023-05-10T02:17:51;11.80;;;4.10;;
71080;SDS011;58740;50.672;18.690;2023-05-10T02:20:23;6.90;;;3.20;;
71080;SDS011;58740;50.672;18.690;2023-05-10T02:22:54;8.50;;;3.70;;
71080;SDS011;58740;50.672;18.690;2023-05-10T02:25:24;7.60;;;3.20;;
71080;SDS011;58740;50.672;18.690;2023-05-10T02:27:55;7.90;;;3.10;;
71080;SDS011;58740;50.672;18.690;2023-05-10T02:30:25;6.80;;;2.60;;
71080;SDS011;58740;50.672;18.690;2023-05-10T02:32:54;8.40;;;3.30;;
71080;SDS011;58740;50.672;18.690;2023-05-10T02:35:25;8.30;;;3.40;;
71080;SDS011;58740;50.672;18.690;2023-05-10T02:37:54;6.40;;;2.50;;
71080;SDS011;58740;50.672;18.690;2023-05-10T02:40:24;9.10;;;3.70;;
71080;SDS011;58740;50.672;18.690;2023-05-10T02:42:56;5.30;;;2.30;;
71080;SDS011;58740;50.672;18.690;2023-05-10T02:45:27;8.90;;;3.20;;
71080;SDS011;58740;50.672;18.690;2023-05-10T02:47:58;8.60;;;3.70;;
71080;SDS011;58740;50.672;18.690;2023-05-10T02:50:28;10.30;;;4.10;;
71080;SDS011;58740;50.672;18.690;2023-05-10T02:53:06;8.30;;;3.50;;
71080;SDS011;58740;50.672;18.690;2023-05-10T02:55:41;8.10;;;3.30;;
71080;SDS011;58740;50.672;18.690;2023-05-10T02:58:10;9.20;;;4.30;;
71080;SDS011;58740;50.672;18.690;2023-05-10T03:00:38;8.50;;;3.90;;
71080;SDS011;58740;50.672;18.690;2023-05-10T03:03:06;8.60;;;3.10;;
71080;SDS011;58740;50.672;18.690;2023-05-10T03:05:34;7.90;;;3.70;;
71080;SDS011;58740;50.672;18.690;2023-05-10T03:08:02;8.90;;;3.70;;
71080;SDS011;58740;50.672;18.690;2023-05-10T03:10:32;7.50;;;3.60;;
71080;SDS011;58740;50.672;18.690;2023-05-10T03:13:16;8.80;;;3.10;;
71080;SDS011;58740;50.672;18.690;2023-05-10T03:16:07;8.10;;;3.00;;
71080;SDS011;58740;50.672;18.690;2023-05-10T03:18:48;7.10;;;3.00;;
71080;SDS011;58740;50.672;18.690;2023-05-10T03:21:22;11.30;;;3.60;;
71080;SDS011;58740;50.672;18.690;2023-05-10T03:24:08;9.50;;;3.20;;
71080;SDS011;58740;50.672;18.690;2023-05-10T03:26:43;7.90;;;3.20;;
71080;SDS011;58740;50.672;18.690;2023-05-10T03:29:12;9.40;;;3.70;;
71080;SDS011;58740;50.672;18.690;2023-05-10T03:31:42;8.30;;;3.90;;
71080;SDS011;58740;50.672;18.690;2023-05-10T03:34:10;7.20;;;2.60;;
71080;SDS011;58740;50.672;18.690;2023-05-10T03:36:38;8.30;;;2.50;;
71080;SDS011;58740;50.672;18.690;2023-05-10T03:39:06;6.80;;;3.10;;
71080;SDS011;58740;50.672;18.690;2023-05-10T03:41:34;9.40;;;3.80;;
71080;SDS011;58740;50.672;18.690;2023-05-10T03:44:02;8.00;;;3.40;;
71080;SDS011;58740;50.672;18.690;2023-05-10T03:46:29;9.00;;;3.60;;
71080;SDS011;58740;50.672;18.690;2023-05-10T03:48:57;7.70;;;3.30;;
71080;SDS011;58740;50.672;18.690;2023-05-10T03:51:25;7.00;;;3.30;;
71080;SDS011;58740;50.672;18.690;2023-05-10T03:53:55;7.50;;;3.30;;
71080;SDS011;58740;50.672;18.690;2023-05-10T03:56:23;10.00;;;3.90;;
71080;SDS011;58740;50.672;18.690;2023-05-10T03:58:50;8.50;;;3.50;;
71080;SDS011;58740;50.672;18.690;2023-05-10T04:01:18;7.30;;;3.50;;
71080;SDS011;58740;50.672;18.690;2023-05-10T04:03:46;10.30;;;3.50;;
71080;SDS011;58740;50.672;18.690;2023-05-10T04:06:14;8.20;;;3.70;;
71080;SDS011;58740;50.672;18.690;2023-05-10T04:08:41;6.40;;;3.10;;
71080;SDS011;58740;50.672;18.690;2023-05-10T04:11:11;9.50;;;3.30;;
71080;SDS011;58740;50.672;18.690;2023-05-10T04:13:40;8.30;;;3.20;;
71080;SDS011;58740;50.672;18.690;2023-05-10T04:16:07;8.00;;;3.40;;
71080;SDS011;58740;50.672;18.690;2023-05-10T04:18:36;7.10;;;3.00;;
71080;SDS011;58740;50.672;18.690;2023-05-10T04:21:04;6.60;;;3.00;;
71080;SDS011;58740;50.672;18.690;2023-05-10T04:23:32;6.80;;;3.00;;
71080;SDS011;58740;50.672;18.690;2023-05-10T04:26:00;5.30;;;2.40;;
71080;SDS011;58740;50.672;18.690;2023-05-10T04:28:29;5.80;;;2.90;;
71080;SDS011;58740;50.672;18.690;2023-05-10T04:31:04;6.80;;;3.10;;
71080;SDS011;58740;50.672;18.690;2023-05-10T04:33:33;7.10;;;2.90;;
71080;SDS011;58740;50.672;18.690;2023-05-10T04:36:02;8.00;;;3.60;;
71080;SDS011;58740;50.672;18.690;2023-05-10T04:38:30;6.60;;;2.80;;
71080;SDS011;58740;50.672;18.690;2023-05-10T04:43:34;11.60;;;3.80;;
71080;SDS011;58740;50.672;18.690;2023-05-10T04:46:03;8.10;;;3.00;;
71080;SDS011;58740;50.672;18.690;2023-05-10T04:48:32;10.30;;;3.80;;
71080;SDS011;58740;50.672;18.690;2023-05-10T04:51:00;9.80;;;4.50;;
71080;SDS011;58740;50.672;18.690;2023-05-10T04:53:28;14.30;;;4.00;;
71080;SDS011;58740;50.672;18.690;2023-05-10T04:55:56;7.80;;;3.30;;
71080;SDS011;58740;50.672;18.690;2023-05-10T04:58:23;10.20;;;3.50;;
71080;SDS011;58740;50.672;18.690;2023-05-10T05:00:51;7.40;;;3.90;;
71080;SDS011;58740;50.672;18.690;2023-05-10T05:03:19;11.00;;;4.50;;
71080;SDS011;58740;50.672;18.690;2023-05-10T05:05:47;7.60;;;3.50;;
71080;SDS011;58740;50.672;18.690;2023-05-10T05:08:15;9.10;;;3.80;;
71080;SDS011;58740;50.672;18.690;2023-05-10T05:10:42;7.30;;;3.40;;
71080;SDS011;58740;50.672;18.690;2023-05-10T05:13:12;8.30;;;3.50;;
71080;SDS011;58740;50.672;18.690;2023-05-10T05:15:40;8.60;;;3.70;;
71080;SDS011;58740;50.672;18.690;2023-05-10T05:18:08;9.80;;;4.40;;
71080;SDS011;58740;50.672;18.690;2023-05-10T05:20:36;7.70;;;3.60;;
71080;SDS011;58740;50.672;18.690;2023-05-10T05:23:03;8.00;;;3.60;;
71080;SDS011;58740;50.672;18.690;2023-05-10T05:25:31;8.50;;;3.90;;
71080;SDS011;58740;50.672;18.690;2023-05-10T05:27:59;7.90;;;2.90;;
71080;SDS011;58740;50.672;18.690;2023-05-10T05:30:27;7.60;;;3.40;;
71080;SDS011;58740;50.672;18.690;2023-05-10T05:32:55;9.50;;;3.40;;
71080;SDS011;58740;50.672;18.690;2023-05-10T05:35:23;8.60;;;3.20;;
71080;SDS011;58740;50.672;18.690;2023-05-10T05:37:51;8.80;;;2.80;;
71080;SDS011;58740;50.672;18.690;2023-05-10T05:40:19;6.00;;;2.70;;
71080;SDS011;58740;50.672;18.690;2023-05-10T05:42:47;6.10;;;2.90;;
71080;SDS011;58740;50.672;18.690;2023-05-10T05:45:15;9.60;;;3.60;;
71080;SDS011;58740;50.672;18.690;2023-05-10T05:47:43;7.60;;;2.70;;
71080;SDS011;58740;50.672;18.690;2023-05-10T05:50:11;6.50;;;2.80;;
71080;SDS011;58740;50.672;18.690;2023-05-10T05:52:39;8.00;;;2.60;;
71080;SDS011;58740;50.672;18.690;2023-05-10T05:55:07;8.50;;;2.80;;
71080;SDS011;58740;50.672;18.690;2023-05-10T05:57:35;6.10;;;2.40;;
71080;SDS011;58740;50.672;18.690;2023-05-10T06:00:03;6.10;;;2.60;;
71080;SDS011;58740;50.672;18.690;2023-05-10T06:02:31;4.10;;;1.90;;
71080;SDS011;58740;50.672;18.690;2023-05-10T06:04:59;5.20;;;2.60;;
71080;SDS011;58740;50.672;18.690;2023-05-10T06:07:27;7.00;;;2.60;;
71080;SDS011;58740;50.672;18.690;2023-05-10T06:09:54;5.60;;;2.40;;
71080;SDS011;58740;50.672;18.690;2023-05-10T06:12:22;5.20;;;2.30;;
71080;SDS011;58740;50.672;18.690;2023-05-10T06:14:49;5.90;;;2.00;;
71080;SDS011;58740;50.672;18.690;2023-05-10T06:17:17;3.70;;;1.60;;
71080;SDS011;58740;50.672;18.690;2023-05-10T06:19:45;5.60;;;2.10;;
71080;SDS011;58740;50.672;18.690;2023-05-10T06:22:13;5.30;;;2.60;;
71080;SDS011;58740;50.672;18.690;2023-05-10T06:24:41;6.30;;;2.30;;
71080;SDS011;58740;50.672;18.690;2023-05-10T06:27:08;4.40;;;1.90;;
71080;SDS011;58740;50.672;18.690;2023-05-10T06:29:36;7.00;;;2.70;;
71080;SDS011;58740;50.672;18.690;2023-05-10T06:32:04;6.40;;;2.20;;
71080;SDS011;58740;50.672;18.690;2023-05-10T06:34:32;6.30;;;2.50;;
71080;SDS011;58740;50.672;18.690;2023-05-10T06:36:59;6.90;;;2.50;;
71080;SDS011;58740;50.672;18.690;2023-05-10T06:39:27;6.40;;;2.00;;
71080;SDS011;58740;50.672;18.690;2023-05-10T06:41:56;4.70;;;1.70;;
71080;SDS011;58740;50.672;18.690;2023-05-10T06:44:24;6.60;;;2.30;;
71080;SDS011;58740;50.672;18.690;2023-05-10T06:46:52;6.30;;;2.20;;
71080;SDS011;58740;50.672;18.690;2023-05-10T06:49:21;5.70;;;2.40;;
71080;SDS011;58740;50.672;18.690;2023-05-10T06:51:49;4.80;;;1.90;;
71080;SDS011;58740;50.672;18.690;2023-05-10T06:54:17;6.30;;;2.50;;
71080;SDS011;58740;50.672;18.690;2023-05-10T06:56:45;6.40;;;2.80;;
71080;SDS011;58740;50.672;18.690;2023-05-10T06:59:12;9.50;;;4.20;;
71080;SDS011;58740;50.672;18.690;2023-05-10T07:01:41;6.30;;;2.30;;
71080;SDS011;58740;50.672;18.690;2023-05-10T07:04:08;8.10;;;2.10;;
71080;SDS011;58740;50.672;18.690;2023-05-10T07:06:36;6.10;;;2.50;;
71080;SDS011;58740;50.672;18.690;2023-05-10T07:09:04;5.50;;;2.30;;
71080;SDS011;58740;50.672;18.690;2023-05-10T07:11:32;6.30;;;2.40;;
71080;SDS011;58740;50.672;18.690;2023-05-10T07:13:59;5.90;;;2.50;;
71080;SDS011;58740;50.672;18.690;2023-05-10T07:16:27;7.10;;;2.30;;
71080;SDS011;58740;50.672;18.690;2023-05-10T07:18:56;5.40;;;2.30;;
71080;SDS011;58740;50.672;18.690;2023-05-10T07:21:23;7.50;;;2.70;;
71080;SDS011;58740;50.672;18.690;2023-05-10T07:23:51;6.00;;;2.20;;
71080;SDS011;58740;50.672;18.690;2023-05-10T07:26:19;5.00;;;1.70;;
71080;SDS011;58740;50.672;18.690;2023-05-10T07:28:48;6.00;;;2.20;;
71080;SDS011;58740;50.672;18.690;2023-05-10T07:31:15;3.70;;;1.60;;
71080;SDS011;58740;50.672;18.690;2023-05-10T07:33:43;5.50;;;2.40;;
71080;SDS011;58740;50.672;18.690;2023-05-10T07:36:11;4.80;;;2.00;;
71080;SDS011;58740;50.672;18.690;2023-05-10T07:38:38;4.80;;;2.10;;
71080;SDS011;58740;50.672;18.690;2023-05-10T07:41:07;4.80;;;1.90;;
71080;SDS011;58740;50.672;18.690;2023-05-10T07:43:35;5.70;;;1.70;;
71080;SDS011;58740;50.672;18.690;2023-05-10T07:46:02;4.30;;;1.80;;
71080;SDS011;58740;50.672;18.690;2023-05-10T07:48:30;4.50;;;1.80;;
71080;SDS011;58740;50.672;18.690;2023-05-10T07:50:59;4.80;;;2.00;;
71080;SDS011;58740;50.672;18.690;2023-05-10T07:53:26;3.50;;;1.50;;
71080;SDS011;58740;50.672;18.690;2023-05-10T07:55:57;6.30;;;1.90;;
71080;SDS011;58740;50.672;18.690;2023-05-10T07:58:26;5.10;;;1.90;;
71080;SDS011;58740;50.672;18.690;2023-05-10T08:00:54;5.40;;;2.20;;
71080;SDS011;58740;50.672;18.690;2023-05-10T08:03:22;6.90;;;3.00;;
71080;SDS011;58740;50.672;18.690;2023-05-10T08:05:49;4.00;;;1.80;;
71080;SDS011;58740;50.672;18.690;2023-05-10T08:08:17;4.70;;;1.80;;
71080;SDS011;58740;50.672;18.690;2023-05-10T08:10:45;3.90;;;1.60;;
71080;SDS011;58740;50.672;18.690;2023-05-10T08:13:13;3.80;;;1.80;;
71080;SDS011;58740;50.672;18.690;2023-05-10T08:15:40;7.10;;;1.80;;
71080;SDS011;58740;50.672;18.690;2023-05-10T08:18:08;4.40;;;1.60;;
71080;SDS011;58740;50.672;18.690;2023-05-10T08:20:36;4.80;;;1.80;;
71080;SDS011;58740;50.672;18.690;2023-05-10T08:23:03;4.30;;;2.00;;
71080;SDS011;58740;50.672;18.690;2023-05-10T08:25:31;3.70;;;1.40;;
71080;SDS011;58740;50.672;18.690;2023-05-10T08:27:59;8.80;;;2.00;;
71080;SDS011;58740;50.672;18.690;2023-05-10T08:30:27;3.20;;;1.50;;
71080;SDS011;58740;50.672;18.690;2023-05-10T08:32:55;5.80;;;2.20;;
71080;SDS011;58740;50.672;18.690;2023-05-10T08:35:23;5.80;;;1.70;;
71080;SDS011;58740;50.672;18.690;2023-05-10T08:37:52;6.00;;;1.80;;
71080;SDS011;58740;50.672;18.690;2023-05-10T08:40:19;2.90;;;1.40;;
71080;SDS011;58740;50.672;18.690;2023-05-10T08:43:01;5.00;;;2.10;;
71080;SDS011;58740;50.672;18.690;2023-05-10T08:45:37;6.80;;;2.20;;
71080;SDS011;58740;50.672;18.690;2023-05-10T08:48:08;4.80;;;2.00;;
71080;SDS011;58740;50.672;18.690;2023-05-10T08:50:40;7.60;;;3.80;;
71080;SDS011;58740;50.672;18.690;2023-05-10T08:53:12;4.70;;;2.10;;
71080;SDS011;58740;50.672;18.690;2023-05-10T08:55:41;5.40;;;2.00;;
71080;SDS011;58740;50.672;18.690;2023-05-10T08:58:10;4.80;;;1.50;;
71080;SDS011;58740;50.672;18.690;2023-05-10T09:00:37;5.10;;;1.80;;
71080;SDS011;58740;50.672;18.690;2023-05-10T09:03:05;4.50;;;1.70;;
71080;SDS011;58740;50.672;18.690;2023-05-10T09:05:34;4.10;;;1.90;;
71080;SDS011;58740;50.672;18.690;2023-05-10T09:08:04;4.70;;;1.70;;
71080;SDS011;58740;50.672;18.690;2023-05-10T09:10:33;10.80;;;4.10;;
71080;SDS011;58740;50.672;18.690;2023-05-10T09:13:02;12.20;;;4.50;;
71080;SDS011;58740;50.672;18.690;2023-05-10T09:15:30;5.40;;;2.10;;
71080;SDS011;58740;50.672;18.690;2023-05-10T09:17:58;5.70;;;1.80;;
71080;SDS011;58740;50.672;18.690;2023-05-10T09:20:29;3.50;;;1.60;;
71080;SDS011;58740;50.672;18.690;2023-05-10T09:22:58;4.20;;;1.90;;
71080;SDS011;58740;50.672;18.690;2023-05-10T09:25:26;3.70;;;1.50;;
71080;SDS011;58740;50.672;18.690;2023-05-10T09:27:54;3.10;;;1.40;;
71080;SDS011;58740;50.672;18.690;2023-05-10T09:30:27;4.40;;;1.60;;
71080;SDS011;58740;50.672;18.690;2023-05-10T09:32:57;3.40;;;1.70;;
71080;SDS011;58740;50.672;18.690;2023-05-10T09:35:28;5.00;;;1.40;;
71080;SDS011;58740;50.672;18.690;2023-05-10T09:38:04;4.00;;;1.50;;
71080;SDS011;58740;50.672;18.690;2023-05-10T09:40:32;4.40;;;1.70;;
71080;SDS011;58740;50.672;18.690;2023-05-10T09:43:02;4.50;;;1.70;;
71080;SDS011;58740;50.672;18.690;2023-05-10T09:45:35;5.80;;;2.00;;
71080;SDS011;58740;50.672;18.690;2023-05-10T09:48:05;5.10;;;1.70;;
71080;SDS011;58740;50.672;18.690;2023-05-10T09:50:34;4.70;;;2.10;;
71080;SDS011;58740;50.672;18.690;2023-05-10T09:53:03;4.30;;;2.20;;
71080;SDS011;58740;50.672;18.690;2023-05-10T09:55:43;3.10;;;1.50;;
71080;SDS011;58740;50.672;18.690;2023-05-10T09:58:16;8.00;;;3.80;;
71080;SDS011;58740;50.672;18.690;2023-05-10T10:00:45;5.50;;;2.30;;
71080;SDS011;58740;50.672;18.690;2023-05-10T10:03:20;3.30;;;1.50;;
71080;SDS011;58740;50.672;18.690;2023-05-10T10:05:48;3.10;;;1.60;;
71080;SDS011;58740;50.672;18.690;2023-05-10T10:08:17;4.30;;;1.90;;
71080;SDS011;58740;50.672;18.690;2023-05-10T10:10:46;3.90;;;1.50;;
71080;SDS011;58740;50.672;18.690;2023-05-10T10:13:14;4.30;;;1.50;;
71080;SDS011;58740;50.672;18.690;2023-05-10T10:15:43;4.20;;;1.60;;
71080;SDS011;58740;50.672;18.690;2023-05-10T10:18:13;5.80;;;1.60;;
71080;SDS011;58740;50.672;18.690;2023-05-10T10:20:42;5.50;;;1.50;;
71080;SDS011;58740;50.672;18.690;2023-05-10T10:23:10;3.00;;;1.50;;
71080;SDS011;58740;50.672;18.690;2023-05-10T10:25:38;4.20;;;1.70;;
71080;SDS011;58740;50.672;18.690;2023-05-10T10:32:27;3.70;;;1.30;;
71080;SDS011;58740;50.672;18.690;2023-05-10T10:34:35;6.60;;;1.40;;
71080;SDS011;58740;50.672;18.690;2023-05-10T10:37:05;5.10;;;1.80;;
71080;SDS011;58740;50.672;18.690;2023-05-10T10:39:34;4.10;;;1.60;;
71080;SDS011;58740;50.672;18.690;2023-05-10T10:42:04;5.80;;;1.60;;
71080;SDS011;58740;50.672;18.690;2023-05-10T10:49:44;6.30;;;1.60;;
71080;SDS011;58740;50.672;18.690;2023-05-10T10:52:21;6.60;;;1.50;;
71080;SDS011;58740;50.672;18.690;2023-05-10T10:55:14;6.10;;;1.40;;
71080;SDS011;58740;50.672;18.690;2023-05-10T10:57:55;4.50;;;1.90;;
71080;SDS011;58740;50.672;18.690;2023-05-10T11:00:33;3.90;;;1.30;;
71080;SDS011;58740;50.672;18.690;2023-05-10T11:03:09;4.40;;;1.50;;
71080;SDS011;58740;50.672;18.690;2023-05-10T11:05:48;4.20;;;1.40;;
71080;SDS011;58740;50.672;18.690;2023-05-10T11:08:27;4.10;;;1.60;;
71080;SDS011;58740;50.672;18.690;2023-05-10T11:13:41;5.70;;;1.70;;
71080;SDS011;58740;50.672;18.690;2023-05-10T11:16:18;5.30;;;1.90;;
71080;SDS011;58740;50.672;18.690;2023-05-10T11:18:54;4.00;;;1.60;;
71080;SDS011;58740;50.672;18.690;2023-05-10T11:21:24;6.20;;;2.00;;
71080;SDS011;58740;50.672;18.690;2023-05-10T11:23:54;5.90;;;2.10;;
71080;SDS011;58740;50.672;18.690;2023-05-10T11:26:31;4.70;;;1.90;;
71080;SDS011;58740;50.672;18.690;2023-05-10T11:29:01;5.90;;;2.30;;
71080;SDS011;58740;50.672;18.690;2023-05-10T11:31:30;5.70;;;2.20;;
71080;SDS011;58740;50.672;18.690;2023-05-10T11:34:00;5.30;;;2.00;;
71080;SDS011;58740;50.672;18.690;2023-05-10T11:36:35;7.10;;;1.90;;
71080;SDS011;58740;50.672;18.690;2023-05-10T11:39:04;5.10;;;2.10;;
71080;SDS011;58740;50.672;18.690;2023-05-10T11:41:34;4.80;;;2.00;;
71080;SDS011;58740;50.672;18.690;2023-05-10T11:44:03;5.40;;;2.00;;
71080;SDS011;58740;50.672;18.690;2023-05-10T11:46:30;11.70;;;6.00;;
71080;SDS011;58740;50.672;18.690;2023-05-10T11:49:02;5.30;;;2.30;;
71080;SDS011;58740;50.672;18.690;2023-05-10T11:51:35;5.20;;;2.00;;
71080;SDS011;58740;50.672;18.690;2023-05-10T11:54:08;5.60;;;2.10;;
71080;SDS011;58740;50.672;18.690;2023-05-10T11:56:39;6.00;;;2.30;;
71080;SDS011;58740;50.672;18.690;2023-05-10T11:59:08;5.10;;;1.80;;
71080;SDS011;58740;50.672;18.690;2023-05-10T12:01:36;9.00;;;1.90;;
71080;SDS011;58740;50.672;18.690;2023-05-10T12:04:04;4.20;;;1.50;;
71080;SDS011;58740;50.672;18.690;2023-05-10T12:06:37;5.80;;;2.40;;
71080;SDS011;58740;50.672;18.690;2023-05-10T12:09:08;9.30;;;2.50;;
71080;SDS011;58740;50.672;18.690;2023-05-10T12:11:38;3.00;;;1.20;;
71080;SDS011;58740;50.672;18.690;2023-05-10T12:14:10;5.20;;;1.70;;
71080;SDS011;58740;50.672;18.690;2023-05-10T12:16:38;5.80;;;1.70;;
71080;SDS011;58740;50.672;18.690;2023-05-10T12:19:06;5.50;;;1.90;;
71080;SDS011;58740;50.672;18.690;2023-05-10T12:21:34;5.50;;;2.40;;
71080;SDS011;58740;50.672;18.690;2023-05-10T12:24:03;4.30;;;1.60;;
71080;SDS011;58740;50.672;18.690;2023-05-10T12:26:32;5.40;;;1.80;;
71080;SDS011;58740;50.672;18.690;2023-05-10T12:29:16;4.50;;;1.60;;
71080;SDS011;58740;50.672;18.690;2023-05-10T12:31:56;4.40;;;1.90;;
71080;SDS011;58740;50.672;18.690;2023-05-10T12:34:35;8.40;;;2.20;;
71080;SDS011;58740;50.672;18.690;2023-05-10T12:37:04;5.70;;;2.20;;
71080;SDS011;58740;50.672;18.690;2023-05-10T12:39:39;4.00;;;1.70;;
71080;SDS011;58740;50.672;18.690;2023-05-10T12:42:11;6.90;;;1.70;;
71080;SDS011;58740;50.672;18.690;2023-05-10T12:44:40;4.90;;;1.80;;
71080;SDS011;58740;50.672;18.690;2023-05-10T12:47:08;4.60;;;1.70;;
71080;SDS011;58740;50.672;18.690;2023-05-10T12:49:37;5.00;;;2.00;;
71080;SDS011;58740;50.672;18.690;2023-05-10T12:52:05;3.80;;;1.80;;
71080;SDS011;58740;50.672;18.690;2023-05-10T12:54:36;5.70;;;2.10;;
71080;SDS011;58740;50.672;18.690;2023-05-10T12:57:04;4.20;;;2.00;;
71080;SDS011;58740;50.672;18.690;2023-05-10T12:59:35;6.20;;;2.10;;
71080;SDS011;58740;50.672;18.690;2023-05-10T13:02:06;8.80;;;3.40;;
71080;SDS011;58740;50.672;18.690;2023-05-10T13:04:34;6.30;;;2.40;;
71080;SDS011;58740;50.672;18.690;2023-05-10T13:07:02;5.70;;;2.00;;
71080;SDS011;58740;50.672;18.690;2023-05-10T13:09:30;4.30;;;1.60;;
71080;SDS011;58740;50.672;18.690;2023-05-10T13:11:58;5.50;;;2.20;;
71080;SDS011;58740;50.672;18.690;2023-05-10T13:14:26;6.80;;;2.40;;
71080;SDS011;58740;50.672;18.690;2023-05-10T13:16:54;4.10;;;2.00;;
71080;SDS011;58740;50.672;18.690;2023-05-10T13:19:24;4.20;;;1.40;;
71080;SDS011;58740;50.672;18.690;2023-05-10T13:21:51;5.40;;;1.90;;
71080;SDS011;58740;50.672;18.690;2023-05-10T13:24:19;7.40;;;2.60;;
71080;SDS011;58740;50.672;18.690;2023-05-10T13:26:47;5.30;;;2.00;;
71080;SDS011;58740;50.672;18.690;2023-05-10T13:29:16;7.40;;;2.50;;
71080;SDS011;58740;50.672;18.690;2023-05-10T13:31:45;6.00;;;2.20;;
71080;SDS011;58740;50.672;18.690;2023-05-10T13:34:16;5.50;;;1.80;;
71080;SDS011;58740;50.672;18.690;2023-05-10T13:36:47;4.50;;;1.90;;
71080;SDS011;58740;50.672;18.690;2023-05-10T13:39:16;3.90;;;1.90;;
71080;SDS011;58740;50.672;18.690;2023-05-10T13:41:44;8.30;;;2.20;;
71080;SDS011;58740;50.672;18.690;2023-05-10T13:44:12;4.80;;;1.60;;
71080;SDS011;58740;50.672;18.690;2023-05-10T13:46:41;4.70;;;2.20;;
71080;SDS011;58740;50.672;18.690;2023-05-10T13:49:12;4.90;;;1.80;;
71080;SDS011;58740;50.672;18.690;2023-05-10T13:51:40;4.10;;;2.00;;
71080;SDS011;58740;50.672;18.690;2023-05-10T13:54:08;5.40;;;2.10;;
71080;SDS011;58740;50.672;18.690;2023-05-10T13:56:38;5.20;;;2.00;;
71080;SDS011;58740;50.672;18.690;2023-05-10T13:59:06;6.80;;;2.20;;
71080;SDS011;58740;50.672;18.690;2023-05-10T14:01:35;4.30;;;1.80;;
71080;SDS011;58740;50.672;18.690;2023-05-10T14:04:04;5.90;;;2.20;;
71080;SDS011;58740;50.672;18.690;2023-05-10T14:06:31;8.20;;;2.40;;
71080;SDS011;58740;50.672;18.690;2023-05-10T14:08:59;4.50;;;2.10;;
71080;SDS011;58740;50.672;18.690;2023-05-10T14:11:27;5.00;;;1.90;;
71080;SDS011;58740;50.672;18.690;2023-05-10T14:13:55;5.10;;;1.90;;
71080;SDS011;58740;50.672;18.690;2023-05-10T14:16:23;3.70;;;1.70;;
71080;SDS011;58740;50.672;18.690;2023-05-10T14:18:51;5.40;;;1.90;;
71080;SDS011;58740;50.672;18.690;2023-05-10T14:21:19;5.50;;;2.00;;
71080;SDS011;58740;50.672;18.690;2023-05-10T14:23:47;4.70;;;1.90;;
71080;SDS011;58740;50.672;18.690;2023-05-10T14:26:14;4.40;;;2.10;;
71080;SDS011;58740;50.672;18.690;2023-05-10T14:28:42;7.90;;;2.70;;
71080;SDS011;58740;50.672;18.690;2023-05-10T14:31:10;4.50;;;1.90;;
71080;SDS011;58740;50.672;18.690;2023-05-10T14:33:38;5.80;;;2.30;;
71080;SDS011;58740;50.672;18.690;2023-05-10T14:36:06;4.90;;;2.00;;
71080;SDS011;58740;50.672;18.690;2023-05-10T14:38:34;4.80;;;2.00;;
71080;SDS011;58740;50.672;18.690;2023-05-10T14:41:02;5.20;;;1.90;;
71080;SDS011;58740;50.672;18.690;2023-05-10T14:43:30;5.70;;;1.90;;
71080;SDS011;58740;50.672;18.690;2023-05-10T14:45:58;4.70;;;2.00;;
71080;SDS011;58740;50.672;18.690;2023-05-10T14:48:26;6.00;;;1.90;;
71080;SDS011;58740;50.672;18.690;2023-05-10T14:50:53;5.20;;;2.20;;
71080;SDS011;58740;50.672;18.690;2023-05-10T14:53:36;6.40;;;2.30;;
71080;SDS011;58740;50.672;18.690;2023-05-10T14:56:04;6.80;;;2.20;;
71080;SDS011;58740;50.672;18.690;2023-05-10T14:58:32;6.60;;;2.30;;
71080;SDS011;58740;50.672;18.690;2023-05-10T15:01:00;6.50;;;2.30;;
71080;SDS011;58740;50.672;18.690;2023-05-10T15:03:29;7.10;;;2.00;;
71080;SDS011;58740;50.672;18.690;2023-05-10T15:05:57;5.50;;;1.30;;
71080;SDS011;58740;50.672;18.690;2023-05-10T15:08:25;5.20;;;1.80;;
71080;SDS011;58740;50.672;18.690;2023-05-10T15:10:53;7.40;;;2.50;;
71080;SDS011;58740;50.672;18.690;2023-05-10T15:13:23;4.80;;;2.50;;
71080;SDS011;58740;50.672;18.690;2023-05-10T15:15:50;7.70;;;2.70;;